sensor_id;sensor_type;location;lat;lon;timestamp;P1;durP1;ratioP1;P2;durP2;ratioP2
69989;SDS011;57331;52.054;5.294;2023-06-22T00:00:03;9.73;;;5.13;;
69989;SDS011;57331;52.054;5.294;2023-06-22T00:02:37;9.33;;;4.57;;
69989;SDS011;57331;52.054;5.294;2023-06-22T00:05:04;11.93;;;4.45;;
69989;SDS011;57331;52.054;5.294;2023-06-22T00:07:32;10.98;;;5.28;;
69989;SDS011;57331;52.054;5.294;2023-06-22T00:09:58;11.27;;;5.28;;
69989;SDS011;57331;52.054;5.294;2023-06-22T00:12:26;11.60;;;4.75;;
69989;SDS011;57331;52.054;5.294;2023-06-22T00:14:53;9.87;;;4.97;;
69989;SDS011;57331;52.054;5.294;2023-06-22T00:17:20;8.73;;;4.15;;
69989;SDS011;57331;52.054;5.294;2023-06-22T00:19:47;9.25;;;4.53;;
69989;SDS011;57331;52.054;5.294;2023-06-22T00:22:14;10.98;;;5.38;;
69989;SDS011;57331;52.054;5.294;2023-06-22T00:24:43;11.32;;;5.10;;
69989;SDS011;57331;52.054;5.294;2023-06-22T00:27:10;9.87;;;4.70;;
69989;SDS011;57331;52.054;5.294;2023-06-22T00:29:37;15.55;;;4.95;;
69989;SDS011;57331;52.054;5.294;2023-06-22T00:32:04;12.45;;;5.40;;
69989;SDS011;57331;52.054;5.294;2023-06-22T00:34:31;9.50;;;5.40;;
69989;SDS011;57331;52.054;5.294;2023-06-22T00:36:58;9.60;;;5.00;;
69989;SDS011;57331;52.054;5.294;2023-06-22T00:39:26;9.27;;;4.93;;
69989;SDS011;57331;52.054;5.294;2023-06-22T00:41:53;10.25;;;5.55;;
69989;SDS011;57331;52.054;5.294;2023-06-22T00:44:21;11.95;;;5.90;;
69989;SDS011;57331;52.054;5.294;2023-06-22T00:46:50;11.25;;;5.75;;
69989;SDS011;57331;52.054;5.294;2023-06-22T00:49:17;13.23;;;5.88;;
69989;SDS011;57331;52.054;5.294;2023-06-22T00:51:44;12.60;;;5.67;;
69989;SDS011;57331;52.054;5.294;2023-06-22T00:54:12;10.52;;;5.57;;
69989;SDS011;57331;52.054;5.294;2023-06-22T00:56:42;12.45;;;5.82;;
69989;SDS011;57331;52.054;5.294;2023-06-22T00:59:09;10.32;;;5.50;;
69989;SDS011;57331;52.054;5.294;2023-06-22T01:01:39;9.07;;;5.20;;
69989;SDS011;57331;52.054;5.294;2023-06-22T01:04:07;10.43;;;5.60;;
69989;SDS011;57331;52.054;5.294;2023-06-22T01:06:59;10.63;;;5.05;;
69989;SDS011;57331;52.054;5.294;2023-06-22T01:09:49;9.15;;;5.20;;
69989;SDS011;57331;52.054;5.294;2023-06-22T01:12:23;10.52;;;5.10;;
69989;SDS011;57331;52.054;5.294;2023-06-22T01:14:58;11.05;;;5.05;;
69989;SDS011;57331;52.054;5.294;2023-06-22T01:17:35;9.17;;;4.73;;
69989;SDS011;57331;52.054;5.294;2023-06-22T01:20:02;11.45;;;5.85;;
69989;SDS011;57331;52.054;5.294;2023-06-22T01:22:33;11.77;;;5.50;;
69989;SDS011;57331;52.054;5.294;2023-06-22T01:30:31;10.63;;;5.17;;
69989;SDS011;57331;52.054;5.294;2023-06-22T01:33:02;10.02;;;5.75;;
69989;SDS011;57331;52.054;5.294;2023-06-22T01:35:32;12.43;;;5.88;;
69989;SDS011;57331;52.054;5.294;2023-06-22T01:38:00;9.10;;;5.15;;
69989;SDS011;57331;52.054;5.294;2023-06-22T01:40:27;10.23;;;5.10;;
69989;SDS011;57331;52.054;5.294;2023-06-22T01:42:56;9.73;;;5.07;;
69989;SDS011;57331;52.054;5.294;2023-06-22T01:45:23;11.60;;;5.05;;
69989;SDS011;57331;52.054;5.294;2023-06-22T01:47:51;12.48;;;5.50;;
69989;SDS011;57331;52.054;5.294;2023-06-22T01:50:19;10.35;;;4.75;;
69989;SDS011;57331;52.054;5.294;2023-06-22T01:52:46;10.88;;;5.03;;
69989;SDS011;57331;52.054;5.294;2023-06-22T01:55:13;11.27;;;4.97;;
69989;SDS011;57331;52.054;5.294;2023-06-22T01:57:40;9.02;;;4.68;;
69989;SDS011;57331;52.054;5.294;2023-06-22T02:00:08;10.77;;;4.85;;
69989;SDS011;57331;52.054;5.294;2023-06-22T02:03:25;9.77;;;4.68;;
69989;SDS011;57331;52.054;5.294;2023-06-22T02:05:43;9.20;;;5.00;;
69989;SDS011;57331;52.054;5.294;2023-06-22T02:08:17;9.63;;;5.10;;
69989;SDS011;57331;52.054;5.294;2023-06-22T02:10:48;9.75;;;5.05;;
69989;SDS011;57331;52.054;5.294;2023-06-22T02:13:17;10.75;;;4.97;;
69989;SDS011;57331;52.054;5.294;2023-06-22T02:15:45;13.18;;;5.95;;
69989;SDS011;57331;52.054;5.294;2023-06-22T02:18:13;9.60;;;5.03;;
69989;SDS011;57331;52.054;5.294;2023-06-22T02:20:40;10.07;;;4.40;;
69989;SDS011;57331;52.054;5.294;2023-06-22T02:23:08;10.30;;;4.85;;
69989;SDS011;57331;52.054;5.294;2023-06-22T02:25:35;10.40;;;5.18;;
69989;SDS011;57331;52.054;5.294;2023-06-22T02:28:03;10.13;;;5.38;;
69989;SDS011;57331;52.054;5.294;2023-06-22T02:30:31;9.50;;;4.85;;
69989;SDS011;57331;52.054;5.294;2023-06-22T02:32:58;9.20;;;4.90;;
69989;SDS011;57331;52.054;5.294;2023-06-22T02:35:26;11.20;;;4.90;;
69989;SDS011;57331;52.054;5.294;2023-06-22T02:37:58;10.55;;;4.97;;
69989;SDS011;57331;52.054;5.294;2023-06-22T02:40:26;12.73;;;5.00;;
69989;SDS011;57331;52.054;5.294;2023-06-22T02:42:55;9.20;;;4.70;;
69989;SDS011;57331;52.054;5.294;2023-06-22T02:45:24;11.70;;;5.50;;
69989;SDS011;57331;52.054;5.294;2023-06-22T02:47:51;10.13;;;4.90;;
69989;SDS011;57331;52.054;5.294;2023-06-22T02:50:18;9.82;;;4.80;;
69989;SDS011;57331;52.054;5.294;2023-06-22T02:52:45;8.90;;;4.70;;
69989;SDS011;57331;52.054;5.294;2023-06-22T02:55:13;12.43;;;5.30;;
69989;SDS011;57331;52.054;5.294;2023-06-22T02:57:43;9.03;;;4.63;;
69989;SDS011;57331;52.054;5.294;2023-06-22T03:00:12;8.93;;;4.82;;
69989;SDS011;57331;52.054;5.294;2023-06-22T03:02:46;9.55;;;4.60;;
69989;SDS011;57331;52.054;5.294;2023-06-22T03:05:14;10.48;;;5.03;;
69989;SDS011;57331;52.054;5.294;2023-06-22T03:07:45;11.07;;;5.38;;
69989;SDS011;57331;52.054;5.294;2023-06-22T03:10:12;9.33;;;4.73;;
69989;SDS011;57331;52.054;5.294;2023-06-22T03:12:41;12.40;;;5.18;;
69989;SDS011;57331;52.054;5.294;2023-06-22T03:15:09;10.95;;;5.35;;
69989;SDS011;57331;52.054;5.294;2023-06-22T03:17:39;9.65;;;4.93;;
69989;SDS011;57331;52.054;5.294;2023-06-22T03:20:07;10.60;;;4.88;;
69989;SDS011;57331;52.054;5.294;2023-06-22T03:22:41;10.57;;;4.87;;
69989;SDS011;57331;52.054;5.294;2023-06-22T03:25:08;14.02;;;4.70;;
69989;SDS011;57331;52.054;5.294;2023-06-22T03:27:38;12.35;;;5.35;;
69989;SDS011;57331;52.054;5.294;2023-06-22T03:30:07;11.02;;;5.03;;
69989;SDS011;57331;52.054;5.294;2023-06-22T03:32:35;12.43;;;5.45;;
69989;SDS011;57331;52.054;5.294;2023-06-22T03:35:04;10.43;;;5.17;;
69989;SDS011;57331;52.054;5.294;2023-06-22T03:37:34;9.95;;;5.07;;
69989;SDS011;57331;52.054;5.294;2023-06-22T03:40:01;11.77;;;6.22;;
69989;SDS011;57331;52.054;5.294;2023-06-22T03:42:35;10.73;;;5.40;;
69989;SDS011;57331;52.054;5.294;2023-06-22T03:45:03;10.55;;;5.40;;
69989;SDS011;57331;52.054;5.294;2023-06-22T03:47:30;11.10;;;4.83;;
69989;SDS011;57331;52.054;5.294;2023-06-22T03:49:58;10.63;;;5.72;;
69989;SDS011;57331;52.054;5.294;2023-06-22T03:52:25;14.23;;;6.25;;
69989;SDS011;57331;52.054;5.294;2023-06-22T03:54:51;11.40;;;6.50;;
69989;SDS011;57331;52.054;5.294;2023-06-22T03:57:18;15.40;;;7.00;;
69989;SDS011;57331;52.054;5.294;2023-06-22T03:59:46;12.37;;;6.60;;
69989;SDS011;57331;52.054;5.294;2023-06-22T04:02:13;13.85;;;7.35;;
69989;SDS011;57331;52.054;5.294;2023-06-22T04:04:40;16.80;;;8.10;;
69989;SDS011;57331;52.054;5.294;2023-06-22T04:07:08;13.23;;;7.45;;
69989;SDS011;57331;52.054;5.294;2023-06-22T04:09:35;15.43;;;8.27;;
69989;SDS011;57331;52.054;5.294;2023-06-22T04:12:02;16.53;;;7.77;;
69989;SDS011;57331;52.054;5.294;2023-06-22T04:14:29;17.65;;;7.78;;
69989;SDS011;57331;52.054;5.294;2023-06-22T04:16:57;14.43;;;7.70;;
69989;SDS011;57331;52.054;5.294;2023-06-22T04:19:24;16.77;;;8.25;;
69989;SDS011;57331;52.054;5.294;2023-06-22T04:21:51;14.77;;;7.63;;
69989;SDS011;57331;52.054;5.294;2023-06-22T04:24:18;17.00;;;8.00;;
69989;SDS011;57331;52.054;5.294;2023-06-22T04:26:45;15.07;;;7.80;;
69989;SDS011;57331;52.054;5.294;2023-06-22T04:29:13;16.00;;;8.25;;
69989;SDS011;57331;52.054;5.294;2023-06-22T04:31:40;16.67;;;8.30;;
69989;SDS011;57331;52.054;5.294;2023-06-22T04:34:08;18.52;;;9.05;;
69989;SDS011;57331;52.054;5.294;2023-06-22T04:36:38;15.20;;;8.03;;
69989;SDS011;57331;52.054;5.294;2023-06-22T04:39:07;15.52;;;7.88;;
69989;SDS011;57331;52.054;5.294;2023-06-22T04:41:36;17.42;;;8.48;;
69989;SDS011;57331;52.054;5.294;2023-06-22T04:44:10;14.38;;;8.23;;
69989;SDS011;57331;52.054;5.294;2023-06-22T04:46:51;15.18;;;8.75;;
69989;SDS011;57331;52.054;5.294;2023-06-22T04:49:26;15.50;;;8.53;;
69989;SDS011;57331;52.054;5.294;2023-06-22T04:52:05;18.92;;;8.70;;
69989;SDS011;57331;52.054;5.294;2023-06-22T04:54:34;19.98;;;8.73;;
69989;SDS011;57331;52.054;5.294;2023-06-22T04:57:03;17.52;;;9.15;;
69989;SDS011;57331;52.054;5.294;2023-06-22T04:59:36;19.85;;;9.05;;
69989;SDS011;57331;52.054;5.294;2023-06-22T05:02:05;17.53;;;9.50;;
69989;SDS011;57331;52.054;5.294;2023-06-22T05:04:32;16.50;;;8.82;;
69989;SDS011;57331;52.054;5.294;2023-06-22T05:07:02;16.67;;;8.93;;
69989;SDS011;57331;52.054;5.294;2023-06-22T05:09:30;19.83;;;8.10;;
69989;SDS011;57331;52.054;5.294;2023-06-22T05:11:57;11.88;;;6.50;;
69989;SDS011;57331;52.054;5.294;2023-06-22T05:14:24;15.37;;;7.27;;
69989;SDS011;57331;52.054;5.294;2023-06-22T05:16:51;17.27;;;7.88;;
69989;SDS011;57331;52.054;5.294;2023-06-22T05:19:18;17.70;;;8.57;;
69989;SDS011;57331;52.054;5.294;2023-06-22T05:21:45;15.85;;;8.32;;
69989;SDS011;57331;52.054;5.294;2023-06-22T05:24:12;17.17;;;8.57;;
69989;SDS011;57331;52.054;5.294;2023-06-22T05:26:39;17.40;;;9.87;;
69989;SDS011;57331;52.054;5.294;2023-06-22T05:29:06;15.95;;;8.30;;
69989;SDS011;57331;52.054;5.294;2023-06-22T05:31:34;20.55;;;10.25;;
69989;SDS011;57331;52.054;5.294;2023-06-22T05:34:01;21.35;;;10.43;;
69989;SDS011;57331;52.054;5.294;2023-06-22T05:36:28;15.60;;;9.10;;
69989;SDS011;57331;52.054;5.294;2023-06-22T05:38:56;15.47;;;8.80;;
69989;SDS011;57331;52.054;5.294;2023-06-22T05:41:23;21.50;;;9.05;;
69989;SDS011;57331;52.054;5.294;2023-06-22T05:43:50;19.65;;;10.10;;
69989;SDS011;57331;52.054;5.294;2023-06-22T05:46:18;17.70;;;9.20;;
69989;SDS011;57331;52.054;5.294;2023-06-22T05:48:45;22.02;;;10.82;;
69989;SDS011;57331;52.054;5.294;2023-06-22T05:51:13;25.37;;;10.40;;
69989;SDS011;57331;52.054;5.294;2023-06-22T05:53:40;21.15;;;11.48;;
69989;SDS011;57331;52.054;5.294;2023-06-22T05:56:07;20.60;;;10.52;;
69989;SDS011;57331;52.054;5.294;2023-06-22T05:58:35;24.40;;;13.30;;
69989;SDS011;57331;52.054;5.294;2023-06-22T06:01:01;23.88;;;13.43;;
69989;SDS011;57331;52.054;5.294;2023-06-22T06:03:28;25.87;;;13.07;;
69989;SDS011;57331;52.054;5.294;2023-06-22T06:05:55;23.55;;;13.63;;
69989;SDS011;57331;52.054;5.294;2023-06-22T06:08:23;25.83;;;14.23;;
69989;SDS011;57331;52.054;5.294;2023-06-22T06:10:50;24.23;;;15.02;;
69989;SDS011;57331;52.054;5.294;2023-06-22T06:13:19;23.13;;;14.70;;
69989;SDS011;57331;52.054;5.294;2023-06-22T06:15:46;26.47;;;14.90;;
69989;SDS011;57331;52.054;5.294;2023-06-22T06:18:14;25.45;;;15.00;;
69989;SDS011;57331;52.054;5.294;2023-06-22T06:20:41;24.88;;;13.57;;
69989;SDS011;57331;52.054;5.294;2023-06-22T06:23:09;25.50;;;14.73;;
69989;SDS011;57331;52.054;5.294;2023-06-22T06:25:35;22.05;;;14.25;;
69989;SDS011;57331;52.054;5.294;2023-06-22T06:28:03;24.83;;;13.50;;
69989;SDS011;57331;52.054;5.294;2023-06-22T06:30:31;25.02;;;13.65;;
69989;SDS011;57331;52.054;5.294;2023-06-22T06:32:59;21.90;;;11.70;;
69989;SDS011;57331;52.054;5.294;2023-06-22T06:35:26;22.73;;;12.52;;
69989;SDS011;57331;52.054;5.294;2023-06-22T06:37:54;22.52;;;12.63;;
69989;SDS011;57331;52.054;5.294;2023-06-22T06:40:21;20.27;;;12.47;;
69989;SDS011;57331;52.054;5.294;2023-06-22T06:42:48;21.48;;;12.90;;
69989;SDS011;57331;52.054;5.294;2023-06-22T06:45:17;22.25;;;13.30;;
69989;SDS011;57331;52.054;5.294;2023-06-22T06:47:46;24.27;;;13.80;;
69989;SDS011;57331;52.054;5.294;2023-06-22T06:50:13;21.20;;;13.50;;
69989;SDS011;57331;52.054;5.294;2023-06-22T06:52:40;21.93;;;13.33;;
69989;SDS011;57331;52.054;5.294;2023-06-22T06:55:08;32.90;;;13.43;;
69989;SDS011;57331;52.054;5.294;2023-06-22T06:57:39;24.70;;;13.35;;
69989;SDS011;57331;52.054;5.294;2023-06-22T07:00:10;20.35;;;12.88;;
69989;SDS011;57331;52.054;5.294;2023-06-22T07:02:42;24.17;;;13.23;;
69989;SDS011;57331;52.054;5.294;2023-06-22T07:05:11;24.33;;;13.40;;
69989;SDS011;57331;52.054;5.294;2023-06-22T07:07:39;22.92;;;12.50;;
69989;SDS011;57331;52.054;5.294;2023-06-22T07:10:08;21.20;;;13.32;;
69989;SDS011;57331;52.054;5.294;2023-06-22T07:12:35;21.77;;;13.43;;
69989;SDS011;57331;52.054;5.294;2023-06-22T07:15:06;25.05;;;13.77;;
69989;SDS011;57331;52.054;5.294;2023-06-22T07:17:35;22.03;;;12.97;;
69989;SDS011;57331;52.054;5.294;2023-06-22T07:20:02;23.63;;;13.35;;
69989;SDS011;57331;52.054;5.294;2023-06-22T07:22:39;23.80;;;14.65;;
69989;SDS011;57331;52.054;5.294;2023-06-22T07:25:06;23.08;;;14.13;;
69989;SDS011;57331;52.054;5.294;2023-06-22T07:27:37;22.33;;;14.40;;
69989;SDS011;57331;52.054;5.294;2023-06-22T07:30:09;24.87;;;15.00;;
69989;SDS011;57331;52.054;5.294;2023-06-22T07:32:36;24.90;;;14.38;;
69989;SDS011;57331;52.054;5.294;2023-06-22T07:35:03;24.02;;;14.60;;
69989;SDS011;57331;52.054;5.294;2023-06-22T07:37:31;23.88;;;14.13;;
69989;SDS011;57331;52.054;5.294;2023-06-22T07:40:00;25.33;;;14.73;;
69989;SDS011;57331;52.054;5.294;2023-06-22T07:42:30;23.70;;;14.33;;
69989;SDS011;57331;52.054;5.294;2023-06-22T07:44:59;23.50;;;14.18;;
69989;SDS011;57331;52.054;5.294;2023-06-22T07:47:27;24.35;;;14.32;;
69989;SDS011;57331;52.054;5.294;2023-06-22T07:49:55;19.45;;;12.73;;
69989;SDS011;57331;52.054;5.294;2023-06-22T07:52:24;22.58;;;12.45;;
69989;SDS011;57331;52.054;5.294;2023-06-22T07:54:52;19.33;;;12.77;;
69989;SDS011;57331;52.054;5.294;2023-06-22T07:57:19;21.77;;;12.35;;
69989;SDS011;57331;52.054;5.294;2023-06-22T07:59:47;21.15;;;12.05;;
69989;SDS011;57331;52.054;5.294;2023-06-22T08:02:14;19.42;;;11.02;;
69989;SDS011;57331;52.054;5.294;2023-06-22T08:04:41;19.05;;;11.10;;
69989;SDS011;57331;52.054;5.294;2023-06-22T08:07:08;16.93;;;10.53;;
69989;SDS011;57331;52.054;5.294;2023-06-22T08:09:35;17.58;;;10.65;;
69989;SDS011;57331;52.054;5.294;2023-06-22T08:12:03;17.63;;;9.82;;
69989;SDS011;57331;52.054;5.294;2023-06-22T08:14:30;15.85;;;9.13;;
69989;SDS011;57331;52.054;5.294;2023-06-22T08:16:57;18.23;;;9.13;;
69989;SDS011;57331;52.054;5.294;2023-06-22T08:19:24;17.93;;;9.00;;
69989;SDS011;57331;52.054;5.294;2023-06-22T08:21:51;16.90;;;9.35;;
69989;SDS011;57331;52.054;5.294;2023-06-22T08:24:18;15.07;;;8.70;;
69989;SDS011;57331;52.054;5.294;2023-06-22T08:26:45;18.17;;;9.75;;
69989;SDS011;57331;52.054;5.294;2023-06-22T08:29:12;14.20;;;8.70;;
69989;SDS011;57331;52.054;5.294;2023-06-22T08:31:39;15.17;;;9.50;;
69989;SDS011;57331;52.054;5.294;2023-06-22T08:34:06;15.88;;;9.00;;
69989;SDS011;57331;52.054;5.294;2023-06-22T08:36:33;18.83;;;10.27;;
69989;SDS011;57331;52.054;5.294;2023-06-22T08:39:07;15.38;;;8.25;;
69989;SDS011;57331;52.054;5.294;2023-06-22T08:41:34;15.98;;;9.15;;
69989;SDS011;57331;52.054;5.294;2023-06-22T08:44:01;15.50;;;9.40;;
69989;SDS011;57331;52.054;5.294;2023-06-22T08:46:29;16.65;;;9.57;;
69989;SDS011;57331;52.054;5.294;2023-06-22T08:48:59;15.75;;;9.15;;
69989;SDS011;57331;52.054;5.294;2023-06-22T08:51:27;14.05;;;8.20;;
69989;SDS011;57331;52.054;5.294;2023-06-22T08:53:54;14.45;;;8.77;;
69989;SDS011;57331;52.054;5.294;2023-06-22T08:56:22;14.80;;;8.83;;
69989;SDS011;57331;52.054;5.294;2023-06-22T08:58:48;14.43;;;8.20;;
69989;SDS011;57331;52.054;5.294;2023-06-22T09:01:15;15.13;;;8.80;;
69989;SDS011;57331;52.054;5.294;2023-06-22T09:03:42;14.93;;;8.63;;
69989;SDS011;57331;52.054;5.294;2023-06-22T09:06:10;14.45;;;8.55;;
69989;SDS011;57331;52.054;5.294;2023-06-22T09:08:37;15.87;;;8.67;;
69989;SDS011;57331;52.054;5.294;2023-06-22T09:11:04;17.13;;;8.52;;
69989;SDS011;57331;52.054;5.294;2023-06-22T09:13:31;14.38;;;8.60;;
69989;SDS011;57331;52.054;5.294;2023-06-22T09:15:59;14.05;;;8.40;;
69989;SDS011;57331;52.054;5.294;2023-06-22T09:18:26;12.80;;;7.85;;
69989;SDS011;57331;52.054;5.294;2023-06-22T09:20:53;12.97;;;7.80;;
69989;SDS011;57331;52.054;5.294;2023-06-22T09:23:20;10.93;;;7.13;;
69989;SDS011;57331;52.054;5.294;2023-06-22T09:25:47;13.38;;;8.07;;
69989;SDS011;57331;52.054;5.294;2023-06-22T09:28:14;14.63;;;7.55;;
69989;SDS011;57331;52.054;5.294;2023-06-22T09:30:44;16.73;;;7.50;;
69989;SDS011;57331;52.054;5.294;2023-06-22T09:33:11;15.13;;;6.90;;
69989;SDS011;57331;52.054;5.294;2023-06-22T09:35:39;14.65;;;6.25;;
69989;SDS011;57331;52.054;5.294;2023-06-22T09:38:05;12.60;;;5.53;;
69989;SDS011;57331;52.054;5.294;2023-06-22T09:40:32;9.82;;;5.28;;
69989;SDS011;57331;52.054;5.294;2023-06-22T09:43:06;13.93;;;5.78;;
69989;SDS011;57331;52.054;5.294;2023-06-22T09:45:33;17.47;;;6.37;;
69989;SDS011;57331;52.054;5.294;2023-06-22T09:48:00;11.52;;;6.10;;
69989;SDS011;57331;52.054;5.294;2023-06-22T09:50:27;11.40;;;6.13;;
69989;SDS011;57331;52.054;5.294;2023-06-22T09:52:54;17.23;;;6.65;;
69989;SDS011;57331;52.054;5.294;2023-06-22T09:55:21;10.75;;;5.75;;
69989;SDS011;57331;52.054;5.294;2023-06-22T09:57:49;10.70;;;5.90;;
69989;SDS011;57331;52.054;5.294;2023-06-22T10:00:16;9.27;;;5.45;;
69989;SDS011;57331;52.054;5.294;2023-06-22T10:02:45;9.73;;;5.45;;
69989;SDS011;57331;52.054;5.294;2023-06-22T10:05:13;11.27;;;5.05;;
69989;SDS011;57331;52.054;5.294;2023-06-22T10:07:40;9.80;;;4.85;;
69989;SDS011;57331;52.054;5.294;2023-06-22T10:10:10;10.93;;;4.90;;
69989;SDS011;57331;52.054;5.294;2023-06-22T10:12:42;8.65;;;5.00;;
69989;SDS011;57331;52.054;5.294;2023-06-22T10:15:12;9.52;;;5.05;;
69989;SDS011;57331;52.054;5.294;2023-06-22T10:17:40;8.90;;;4.70;;
69989;SDS011;57331;52.054;5.294;2023-06-22T10:20:07;9.63;;;4.78;;
69989;SDS011;57331;52.054;5.294;2023-06-22T10:22:42;10.70;;;5.00;;
69989;SDS011;57331;52.054;5.294;2023-06-22T10:25:10;10.57;;;5.10;;
69989;SDS011;57331;52.054;5.294;2023-06-22T10:27:39;9.75;;;5.40;;
69989;SDS011;57331;52.054;5.294;2023-06-22T10:30:09;10.88;;;5.45;;
69989;SDS011;57331;52.054;5.294;2023-06-22T10:32:39;8.45;;;4.93;;
69989;SDS011;57331;52.054;5.294;2023-06-22T10:35:08;9.50;;;5.40;;
69989;SDS011;57331;52.054;5.294;2023-06-22T10:37:37;11.73;;;5.18;;
69989;SDS011;57331;52.054;5.294;2023-06-22T10:40:04;10.73;;;5.10;;
69989;SDS011;57331;52.054;5.294;2023-06-22T10:42:32;9.25;;;5.55;;
69989;SDS011;57331;52.054;5.294;2023-06-22T10:44:59;8.77;;;4.88;;
69989;SDS011;57331;52.054;5.294;2023-06-22T10:47:26;11.37;;;4.83;;
69989;SDS011;57331;52.054;5.294;2023-06-22T10:49:52;10.68;;;5.07;;
69989;SDS011;57331;52.054;5.294;2023-06-22T10:52:19;10.52;;;5.10;;
69989;SDS011;57331;52.054;5.294;2023-06-22T10:54:46;9.25;;;5.35;;
69989;SDS011;57331;52.054;5.294;2023-06-22T10:57:13;10.88;;;4.88;;
69989;SDS011;57331;52.054;5.294;2023-06-22T10:59:40;10.57;;;5.13;;
69989;SDS011;57331;52.054;5.294;2023-06-22T11:02:07;10.30;;;4.57;;
69989;SDS011;57331;52.054;5.294;2023-06-22T11:04:34;7.68;;;4.60;;
69989;SDS011;57331;52.054;5.294;2023-06-22T11:07:02;7.72;;;4.32;;
69989;SDS011;57331;52.054;5.294;2023-06-22T11:09:29;8.63;;;4.35;;
69989;SDS011;57331;52.054;5.294;2023-06-22T11:11:56;13.53;;;4.70;;
69989;SDS011;57331;52.054;5.294;2023-06-22T11:14:25;8.70;;;4.85;;
69989;SDS011;57331;52.054;5.294;2023-06-22T11:16:52;10.95;;;5.15;;
69989;SDS011;57331;52.054;5.294;2023-06-22T11:19:19;9.77;;;4.60;;
69989;SDS011;57331;52.054;5.294;2023-06-22T11:21:46;9.77;;;5.15;;
69989;SDS011;57331;52.054;5.294;2023-06-22T11:24:13;8.43;;;4.70;;
69989;SDS011;57331;52.054;5.294;2023-06-22T11:26:40;10.23;;;4.70;;
69989;SDS011;57331;52.054;5.294;2023-06-22T11:29:07;10.70;;;5.32;;
69989;SDS011;57331;52.054;5.294;2023-06-22T11:31:39;10.02;;;4.97;;
69989;SDS011;57331;52.054;5.294;2023-06-22T11:34:06;8.60;;;4.90;;
69989;SDS011;57331;52.054;5.294;2023-06-22T11:36:33;9.97;;;4.70;;
69989;SDS011;57331;52.054;5.294;2023-06-22T11:39:01;10.80;;;6.07;;
69989;SDS011;57331;52.054;5.294;2023-06-22T11:41:34;12.98;;;4.97;;
69989;SDS011;57331;52.054;5.294;2023-06-22T11:44:00;10.57;;;5.43;;
69989;SDS011;57331;52.054;5.294;2023-06-22T11:46:27;10.75;;;5.30;;
69989;SDS011;57331;52.054;5.294;2023-06-22T11:48:54;12.57;;;5.00;;
69989;SDS011;57331;52.054;5.294;2023-06-22T11:51:21;12.35;;;5.05;;
69989;SDS011;57331;52.054;5.294;2023-06-22T11:53:48;10.70;;;6.32;;
69989;SDS011;57331;52.054;5.294;2023-06-22T11:56:15;12.85;;;6.22;;
69989;SDS011;57331;52.054;5.294;2023-06-22T11:58:42;9.80;;;6.25;;
69989;SDS011;57331;52.054;5.294;2023-06-22T12:01:09;12.63;;;6.23;;
69989;SDS011;57331;52.054;5.294;2023-06-22T12:03:36;12.20;;;5.95;;
69989;SDS011;57331;52.054;5.294;2023-06-22T12:06:03;28.70;;;6.82;;
69989;SDS011;57331;52.054;5.294;2023-06-22T12:08:30;19.77;;;6.53;;
69989;SDS011;57331;52.054;5.294;2023-06-22T12:10:57;21.45;;;7.57;;
69989;SDS011;57331;52.054;5.294;2023-06-22T12:13:23;12.00;;;6.90;;
69989;SDS011;57331;52.054;5.294;2023-06-22T12:15:50;12.57;;;7.05;;
69989;SDS011;57331;52.054;5.294;2023-06-22T12:18:18;14.77;;;6.95;;
69989;SDS011;57331;52.054;5.294;2023-06-22T12:20:47;14.20;;;7.22;;
69989;SDS011;57331;52.054;5.294;2023-06-22T12:23:14;14.65;;;7.63;;
69989;SDS011;57331;52.054;5.294;2023-06-22T12:25:41;15.57;;;8.07;;
69989;SDS011;57331;52.054;5.294;2023-06-22T12:28:08;19.30;;;8.07;;
69989;SDS011;57331;52.054;5.294;2023-06-22T12:30:35;18.27;;;8.05;;
69989;SDS011;57331;52.054;5.294;2023-06-22T12:33:02;15.38;;;7.22;;
69989;SDS011;57331;52.054;5.294;2023-06-22T12:35:29;18.02;;;7.63;;
69989;SDS011;57331;52.054;5.294;2023-06-22T12:37:56;17.27;;;7.70;;
69989;SDS011;57331;52.054;5.294;2023-06-22T12:40:23;16.50;;;8.18;;
69989;SDS011;57331;52.054;5.294;2023-06-22T12:42:50;16.95;;;8.05;;
69989;SDS011;57331;52.054;5.294;2023-06-22T12:45:17;15.05;;;8.00;;
69989;SDS011;57331;52.054;5.294;2023-06-22T12:47:46;14.52;;;8.77;;
69989;SDS011;57331;52.054;5.294;2023-06-22T12:50:13;13.87;;;8.20;;
69989;SDS011;57331;52.054;5.294;2023-06-22T12:52:40;15.38;;;8.57;;
69989;SDS011;57331;52.054;5.294;2023-06-22T12:55:07;13.70;;;8.57;;
69989;SDS011;57331;52.054;5.294;2023-06-22T12:57:34;16.58;;;9.18;;
69989;SDS011;57331;52.054;5.294;2023-06-22T13:00:01;19.88;;;9.15;;
69989;SDS011;57331;52.054;5.294;2023-06-22T13:02:31;13.87;;;8.93;;
69989;SDS011;57331;52.054;5.294;2023-06-22T13:04:58;15.48;;;9.00;;
69989;SDS011;57331;52.054;5.294;2023-06-22T13:07:25;15.68;;;9.05;;
69989;SDS011;57331;52.054;5.294;2023-06-22T13:09:52;23.25;;;9.95;;
69989;SDS011;57331;52.054;5.294;2023-06-22T13:12:20;20.20;;;10.57;;
69989;SDS011;57331;52.054;5.294;2023-06-22T13:14:47;21.80;;;10.77;;
69989;SDS011;57331;52.054;5.294;2023-06-22T13:17:15;14.93;;;10.20;;
69989;SDS011;57331;52.054;5.294;2023-06-22T13:19:42;17.25;;;10.60;;
69989;SDS011;57331;52.054;5.294;2023-06-22T13:22:31;18.73;;;11.15;;
69989;SDS011;57331;52.054;5.294;2023-06-22T13:24:58;16.02;;;9.88;;
69989;SDS011;57331;52.054;5.294;2023-06-22T13:27:26;17.70;;;11.10;;
69989;SDS011;57331;52.054;5.294;2023-06-22T13:29:53;17.95;;;10.57;;
69989;SDS011;57331;52.054;5.294;2023-06-22T13:32:20;18.02;;;11.15;;
69989;SDS011;57331;52.054;5.294;2023-06-22T13:34:47;16.90;;;11.00;;
69989;SDS011;57331;52.054;5.294;2023-06-22T13:37:14;21.42;;;10.45;;
69989;SDS011;57331;52.054;5.294;2023-06-22T13:39:42;20.63;;;11.10;;
69989;SDS011;57331;52.054;5.294;2023-06-22T13:42:09;18.70;;;10.90;;
69989;SDS011;57331;52.054;5.294;2023-06-22T13:44:36;17.40;;;11.13;;
69989;SDS011;57331;52.054;5.294;2023-06-22T13:47:03;18.02;;;11.88;;
69989;SDS011;57331;52.054;5.294;2023-06-22T13:49:31;20.13;;;12.15;;
69989;SDS011;57331;52.054;5.294;2023-06-22T13:51:58;19.57;;;11.73;;
69989;SDS011;57331;52.054;5.294;2023-06-22T13:54:25;19.30;;;12.98;;
69989;SDS011;57331;52.054;5.294;2023-06-22T13:56:56;20.48;;;13.43;;
69989;SDS011;57331;52.054;5.294;2023-06-22T13:59:23;22.40;;;13.68;;
69989;SDS011;57331;52.054;5.294;2023-06-22T14:01:50;22.92;;;13.35;;
69989;SDS011;57331;52.054;5.294;2023-06-22T14:04:17;23.10;;;13.97;;
69989;SDS011;57331;52.054;5.294;2023-06-22T14:06:44;18.70;;;13.65;;
69989;SDS011;57331;52.054;5.294;2023-06-22T14:09:11;20.30;;;13.82;;
69989;SDS011;57331;52.054;5.294;2023-06-22T14:11:38;23.10;;;14.65;;
69989;SDS011;57331;52.054;5.294;2023-06-22T14:14:05;28.50;;;16.33;;
69989;SDS011;57331;52.054;5.294;2023-06-22T14:16:32;29.30;;;16.13;;
69989;SDS011;57331;52.054;5.294;2023-06-22T14:18:59;24.23;;;14.82;;
69989;SDS011;57331;52.054;5.294;2023-06-22T14:21:26;24.23;;;14.98;;
69989;SDS011;57331;52.054;5.294;2023-06-22T14:23:53;27.17;;;16.75;;
69989;SDS011;57331;52.054;5.294;2023-06-22T14:26:20;24.80;;;16.23;;
69989;SDS011;57331;52.054;5.294;2023-06-22T14:28:48;23.10;;;15.50;;
69989;SDS011;57331;52.054;5.294;2023-06-22T14:31:18;21.48;;;14.57;;
69989;SDS011;57331;52.054;5.294;2023-06-22T14:33:46;25.92;;;15.27;;
69989;SDS011;57331;52.054;5.294;2023-06-22T14:36:14;21.88;;;14.60;;
69989;SDS011;57331;52.054;5.294;2023-06-22T14:38:42;22.15;;;14.77;;
69989;SDS011;57331;52.054;5.294;2023-06-22T14:41:09;25.53;;;14.53;;
69989;SDS011;57331;52.054;5.294;2023-06-22T14:43:47;19.77;;;13.85;;